createdAt,value
2017-04-04T00:01:08.317Z,29.25
2017-04-04T00:02:17.971Z,29.54
2017-04-04T00:03:27.926Z,29.54
2017-04-04T00:04:37.819Z,29.25
2017-04-04T00:05:47.481Z,29.44
2017-04-04T00:06:57.761Z,29.35
2017-04-04T00:08:07.720Z,29.54
2017-04-04T00:09:18.003Z,29.54
2017-04-04T00:10:28.530Z,29.63
2017-04-04T00:11:38.802Z,29.35
2017-04-04T00:12:49.079Z,29.35
2017-04-04T00:13:59.348Z,29.35
2017-04-04T00:15:09.620Z,29.35
2017-04-04T00:16:20.153Z,29.35
2017-04-04T00:17:30.430Z,29.25
2017-04-04T00:18:40.695Z,29.35
2017-04-04T00:19:50.965Z,29.25
2017-04-04T00:21:01.239Z,29.25
2017-04-04T00:22:11.761Z,29.25
2017-04-04T00:23:22.029Z,29.25
2017-04-04T00:24:32.312Z,29.25
2017-04-04T00:25:42.275Z,29.25
2017-04-04T00:26:52.547Z,29.15
2017-04-04T00:28:02.455Z,29.35
2017-04-04T00:29:12.717Z,29.15
2017-04-04T00:30:23.004Z,29.15
2017-04-04T00:31:32.961Z,29.25
2017-04-04T00:32:43.230Z,29.25
2017-04-04T00:33:53.499Z,29.25
2017-04-04T00:35:03.770Z,29.15
2017-04-04T00:36:14.038Z,29.15
2017-04-04T00:37:24.313Z,29.15
2017-04-04T00:38:33.961Z,29.06
2017-04-04T00:39:44.481Z,29.25
2017-04-04T00:40:54.749Z,29.15
2017-04-04T00:42:04.710Z,29.25
2017-04-04T00:43:14.664Z,29.35
2017-04-04T00:44:24.309Z,29.25
2017-04-04T00:45:34.841Z,29.15
2017-04-04T00:46:44.807Z,29.15
2017-04-04T00:47:55.081Z,29.06
2017-04-04T00:49:05.357Z,29.15
2017-04-04T00:50:15.614Z,29.06
2017-04-04T00:51:25.822Z,29.06
2017-04-04T00:52:36.102Z,29.15
2017-04-04T00:53:46.367Z,29.25
2017-04-04T00:54:56.642Z,29.25
2017-04-04T00:56:06.917Z,29.44
2017-04-04T00:57:17.442Z,29.44
2017-04-04T00:58:27.712Z,29.44
2017-04-04T00:59:37.984Z,29.35
2017-04-04T01:00:48.258Z,29.44
2017-04-04T01:01:58.530Z,29.35
2017-04-04T01:03:09.140Z,29.63
2017-04-04T01:04:18.786Z,29.25
2017-04-04T01:05:28.746Z,29.35
2017-04-04T01:06:38.710Z,29.54
2017-04-04T01:07:48.673Z,29.25
2017-04-04T01:08:59.187Z,29.54
2017-04-04T01:10:09.459Z,29.44
2017-04-04T01:11:19.734Z,29.44
2017-04-04T01:12:29.693Z,29.44
2017-04-04T01:13:39.964Z,29.83
2017-04-04T01:14:50.489Z,29.54
2017-04-04T01:16:00.444Z,29.54
2017-04-04T01:17:10.709Z,29.73
2017-04-04T01:18:20.371Z,29.44
2017-04-04T01:19:30.636Z,29.35
2017-04-04T01:20:41.159Z,29.44
2017-04-04T01:21:51.122Z,29.54
2017-04-04T01:23:01.102Z,29.63
2017-04-04T01:24:10.751Z,29.35
2017-04-04T01:25:21.027Z,29.73
2017-04-04T01:26:31.556Z,29.73
2017-04-04T01:27:41.520Z,29.83
2017-04-04T01:28:51.801Z,29.63
2017-04-04T01:30:01.763Z,29.63
2017-04-04T01:31:12.030Z,29.54
2017-04-04T01:32:22.541Z,29.63
2017-04-04T01:33:32.897Z,29.63
2017-04-04T01:34:43.164Z,29.63
2017-04-04T01:35:53.489Z,29.54
2017-04-04T01:37:03.142Z,29.73
2017-04-04T01:38:13.411Z,29.63
2017-04-04T01:39:23.684Z,29.83
2017-04-04T01:40:33.950Z,29.63
2017-04-04T01:41:43.919Z,29.83
2017-04-04T01:42:53.922Z,29.93
2017-04-04T01:44:04.485Z,29.44
2017-04-04T01:45:14.441Z,29.73
2017-04-04T01:46:24.410Z,29.63
2017-04-04T01:47:34.382Z,29.44
2017-04-04T01:48:44.342Z,29.44
2017-04-04T01:49:54.859Z,29.63
2017-04-04T01:51:04.508Z,29.93
2017-04-04T01:52:14.148Z,29.93
2017-04-04T01:53:24.421Z,29.73
2017-04-04T01:54:34.694Z,29.83
2017-04-04T01:55:45.207Z,29.93
2017-04-04T01:56:55.490Z,29.63
2017-04-04T01:58:05.167Z,29.83
2017-04-04T01:59:15.445Z,29.83
2017-04-04T02:00:25.712Z,29.83
2017-04-04T02:01:36.296Z,29.93
2017-04-04T02:02:46.568Z,29.73
2017-04-04T02:03:56.217Z,29.83
2017-04-04T02:05:06.488Z,29.93
2017-04-04T02:06:16.760Z,29.73
2017-04-04T02:07:26.712Z,29.81
2017-04-04T02:08:37.068Z,29.73
2017-04-04T02:09:47.348Z,30.02
2017-04-04T02:10:57.302Z,29.83
2017-04-04T02:12:07.654Z,29.83
2017-04-04T02:13:18.199Z,29.83
2017-04-04T02:14:28.165Z,29.83
2017-04-04T02:15:38.428Z,29.73
2017-04-04T02:16:48.087Z,29.83
2017-04-04T02:17:58.360Z,29.83
2017-04-04T02:19:08.578Z,29.73
2017-04-04T02:20:18.681Z,30.02
2017-04-04T02:21:28.634Z,29.83
2017-04-04T02:22:38.898Z,30.11
2017-04-04T02:23:48.852Z,30.02
2017-04-04T02:24:59.375Z,29.83
2017-04-04T02:26:09.653Z,30.11
2017-04-04T02:27:19.932Z,30
2017-04-04T02:28:29.884Z,30.19
2017-04-04T02:29:40.153Z,30.11
2017-04-04T02:30:50.357Z,30.21
2017-04-04T02:32:00.329Z,30.19
2017-04-04T02:33:10.607Z,30.1
2017-04-04T02:34:20.883Z,30.21
2017-04-04T02:35:31.161Z,30.1
2017-04-04T02:36:41.372Z,30.02
2017-04-04T02:37:51.650Z,30.11
2017-04-04T02:39:01.906Z,30.02
2017-04-04T02:40:11.875Z,30.31
2017-04-04T02:41:22.150Z,30.02
2017-04-04T02:42:32.723Z,29.91
2017-04-04T02:43:42.676Z,30.21
2017-04-04T02:44:52.983Z,30.58
2017-04-04T02:46:03.272Z,30.49
2017-04-04T02:47:13.232Z,30.11
2017-04-04T02:55:06.558Z,30.11
2017-04-04T02:56:16.827Z,30.29
2017-04-04T02:57:27.107Z,30.11
2017-04-04T02:58:37.062Z,30.02
2017-04-04T02:59:47.370Z,30.1
2017-04-04T03:00:57.336Z,30
2017-04-04T03:02:07.308Z,30.02
2017-04-04T03:03:17.585Z,30.19
2017-04-04T03:04:27.844Z,30.39
2017-04-04T03:05:38.112Z,30.31
2017-04-04T03:06:48.389Z,30.4
2017-04-04T03:07:58.667Z,30.39
2017-04-04T03:09:08.313Z,30.39
2017-04-04T03:10:18.577Z,30.29
2017-04-04T03:11:28.839Z,30.4
2017-04-04T03:12:39.116Z,30.39
2017-04-04T03:13:49.388Z,30.29
2017-04-04T03:14:59.654Z,30.39
2017-04-04T03:16:09.614Z,30.31
2017-04-04T03:17:20.179Z,30.39
2017-04-04T03:18:30.456Z,30.4
2017-04-04T03:19:40.721Z,30.4
2017-04-04T03:20:50.993Z,30.39
2017-04-04T03:22:01.264Z,30.58
2017-04-04T03:23:11.531Z,30.58
2017-04-04T03:24:21.800Z,30.39
2017-04-04T03:25:32.070Z,30.5
2017-04-04T03:26:42.014Z,30.49
2017-04-04T03:27:52.280Z,30.4
2017-04-04T03:29:02.856Z,30.29
2017-04-04T03:30:12.820Z,30.5
2017-04-04T03:31:22.770Z,30.5
2017-04-04T03:32:33.048Z,30.39
2017-04-04T03:33:43.023Z,30.39
2017-04-04T03:34:53.549Z,30.58
2017-04-04T03:36:03.510Z,30.49
2017-04-04T03:37:13.800Z,30.49
2017-04-04T03:38:24.063Z,30.5
2017-04-04T03:39:34.030Z,30.58
2017-04-04T03:40:44.611Z,30.49
2017-04-04T03:41:54.890Z,30.5
2017-04-04T03:43:05.170Z,30.58
2017-04-04T03:44:15.446Z,30.6
2017-04-04T03:45:25.406Z,30.49
2017-04-04T03:46:35.933Z,30.5
2017-04-04T03:47:46.205Z,30.69
2017-04-04T03:48:56.484Z,30.69
2017-04-04T03:50:06.122Z,30.77
2017-04-04T03:51:15.464Z,30.5
2017-04-04T03:52:25.672Z,30.68
2017-04-04T03:53:35.943Z,30.69
2017-04-04T03:54:46.214Z,30.68
2017-04-04T03:55:56.500Z,30.68
2017-04-04T03:57:06.766Z,30.49
2017-04-04T03:58:16.993Z,30.5
2017-04-04T03:59:27.257Z,30.5
2017-04-04T04:00:37.527Z,30.49
2017-04-04T04:01:47.836Z,30.49
2017-04-04T04:02:58.111Z,30.6
2017-04-04T04:04:08.638Z,30.68
2017-04-04T04:05:18.596Z,30.58
2017-04-04T04:06:28.552Z,30.68
2017-04-04T04:07:38.827Z,30.68
2017-04-04T04:08:49.103Z,30.68
2017-04-04T04:09:59.672Z,30.39
2017-04-04T04:11:09.936Z,30.49
2017-04-04T04:12:20.204Z,30.4
2017-04-04T04:13:30.175Z,30.49
2017-04-04T04:14:40.447Z,30.49
2017-04-04T04:15:50.721Z,30.31
2017-04-04T04:17:01.040Z,30.39
2017-04-04T04:18:11.308Z,30.49
2017-04-04T04:19:21.579Z,30.31
2017-04-04T04:20:31.856Z,30.49
2017-04-04T04:21:42.075Z,29.93
2017-04-04T04:22:52.042Z,30.4
2017-04-04T04:24:02.314Z,30.5
2017-04-04T04:25:12.579Z,30.6
2017-04-04T04:26:22.232Z,30.6
2017-04-04T04:27:32.134Z,30.6
2017-04-04T04:28:42.407Z,30.4
2017-04-04T04:29:52.364Z,30.39
2017-04-04T04:31:02.337Z,30.4
2017-04-04T04:32:12.621Z,30.49
2017-04-04T04:33:23.198Z,30.4
2017-04-04T04:34:33.469Z,29.93
2017-04-04T04:35:43.740Z,30.4
2017-04-04T04:36:54.014Z,30.5
2017-04-04T04:38:04.285Z,30.5
2017-04-04T04:39:14.809Z,30.5
2017-04-04T04:40:25.071Z,30.4
2017-04-04T04:41:35.338Z,30.5
2017-04-04T04:42:44.981Z,30.4
2017-04-04T04:43:54.936Z,30.5
2017-04-04T04:45:05.491Z,30.4
2017-04-04T04:46:15.764Z,30.29
2017-04-04T04:47:25.723Z,30.4
2017-04-04T04:48:35.987Z,30.58
2017-04-04T04:49:46.259Z,30.6
2017-04-04T04:50:56.836Z,30.5
2017-04-04T04:52:07.107Z,30.31
2017-04-04T04:53:17.382Z,30.49
2017-04-04T04:54:27.924Z,30.5
2017-04-04T04:55:38.214Z,30.5
2017-04-04T04:56:48.791Z,30.4
2017-04-04T04:57:59.112Z,30.49
2017-04-04T04:59:09.374Z,30.4
2017-04-04T05:00:19.886Z,30.5
2017-04-04T05:01:29.864Z,30.11
2017-04-04T05:02:40.394Z,29.93
2017-04-04T05:03:50.668Z,30.4
2017-04-04T05:05:00.942Z,30.4
2017-04-04T05:06:10.594Z,30.5
2017-04-04T05:07:20.878Z,30.5
2017-04-04T05:08:30.832Z,30.5
2017-04-04T05:09:41.100Z,30.21
2017-04-04T05:10:51.434Z,30.5
2017-04-04T05:12:01.393Z,30.4
2017-04-04T05:13:11.667Z,30.02
2017-04-04T05:14:22.322Z,30.4
2017-04-04T05:15:32.606Z,30.21
2017-04-04T05:16:42.571Z,30.11
2017-04-04T05:17:52.987Z,30.11
2017-04-04T05:19:03.271Z,30.31
2017-04-04T05:20:13.246Z,30.21
2017-04-04T05:21:23.537Z,30.21
2017-04-04T05:22:33.503Z,29.83
2017-04-04T05:23:43.159Z,30.11
2017-04-04T05:24:53.438Z,30.02
2017-04-04T05:26:03.719Z,29.93
2017-04-04T05:27:14.059Z,29.83
2017-04-04T05:28:24.337Z,30.02
2017-04-04T05:29:34.613Z,29.93
2017-04-04T05:30:44.580Z,29.93
2017-04-04T05:31:55.108Z,29.83
2017-04-04T05:33:05.400Z,29.73
2017-04-04T05:34:15.367Z,30.02
2017-04-04T05:35:25.655Z,29.93
2017-04-04T05:36:35.973Z,29.93
2017-04-04T05:37:46.547Z,29.83
2017-04-04T05:38:56.824Z,29.83
2017-04-04T05:40:07.098Z,29.83
2017-04-04T05:41:17.371Z,29.83
2017-04-04T05:42:27.773Z,29.83
2017-04-04T05:43:38.350Z,29.83
2017-04-04T05:44:48.303Z,29.73
2017-04-04T05:45:58.584Z,29.93
2017-04-04T05:47:07.925Z,29.83
2017-04-04T05:48:18.208Z,29.73
2017-04-04T05:49:28.779Z,29.83
2017-04-04T05:50:38.792Z,29.73
2017-04-04T05:51:48.771Z,29.83
2017-04-04T05:52:59.061Z,29.73
2017-04-04T05:54:09.342Z,29.83
2017-04-04T05:55:19.906Z,29.83
2017-04-04T05:56:29.883Z,29.83
2017-04-04T05:57:40.164Z,29.73
2017-04-04T05:58:50.164Z,29.83
2017-04-04T06:00:00.134Z,29.83
2017-04-04T06:01:10.670Z,29.83
2017-04-04T06:02:20.687Z,29.83
2017-04-04T06:03:30.971Z,29.83
2017-04-04T06:04:41.249Z,29.93
2017-04-04T06:05:51.529Z,29.83
2017-04-04T06:07:01.760Z,29.73
2017-04-04T06:08:11.123Z,29.73
2017-04-04T06:09:21.405Z,29.73
2017-04-04T06:10:31.361Z,29.73
2017-04-04T06:11:41.355Z,29.83
2017-04-04T06:12:52.137Z,29.83
2017-04-04T06:14:01.807Z,29.73
2017-04-04T06:15:12.431Z,29.93
2017-04-04T06:16:22.400Z,29.93
2017-04-04T06:17:32.412Z,29.93
2017-04-04T06:18:42.942Z,29.73
2017-04-04T06:19:53.220Z,29.83
2017-04-04T06:21:03.502Z,29.93
2017-04-04T06:22:13.783Z,29.44
2017-04-04T06:23:23.749Z,29.44
2017-04-04T06:24:34.303Z,29.44
2017-04-04T06:25:44.575Z,29.44
2017-04-04T06:26:54.540Z,29.73
2017-04-04T06:28:04.818Z,29.73
2017-04-04T06:29:15.085Z,30.02
2017-04-04T06:30:25.361Z,29.93
2017-04-04T06:31:35.316Z,30.02
2017-04-04T06:32:45.602Z,30.21
2017-04-04T06:33:55.592Z,30.02
2017-04-04T06:35:05.554Z,29.83
2017-04-04T06:36:15.815Z,29.73
2017-04-04T06:37:26.118Z,29.35
2017-04-04T06:38:36.398Z,29.63
2017-04-04T06:39:46.989Z,29.73
2017-04-04T06:40:57.270Z,29.63
2017-04-04T06:42:07.906Z,29.54
2017-04-04T06:43:18.188Z,29.44
2017-04-04T06:44:28.150Z,29.63
2017-04-04T06:45:38.451Z,29.83
2017-04-04T06:46:48.716Z,29.54
2017-04-04T06:47:58.943Z,29.44
2017-04-04T06:49:08.913Z,29.63
2017-04-04T06:50:18.880Z,29.63
2017-04-04T06:51:29.195Z,29.35
2017-04-04T06:52:39.494Z,29.44
2017-04-04T06:53:50.021Z,29.35
2017-04-04T06:54:59.992Z,29.44
2017-04-04T06:56:10.271Z,29.35
2017-04-04T06:57:20.251Z,29.25
2017-04-04T06:58:30.529Z,29.15
2017-04-04T06:59:40.740Z,29.15
2017-04-04T07:00:51.015Z,29.15
2017-04-04T07:02:01.281Z,29.15
2017-04-04T07:03:11.262Z,29.06
2017-04-04T07:04:21.537Z,29.25
2017-04-04T07:05:32.084Z,29.25
2017-04-04T07:06:42.058Z,29.25
2017-04-04T07:07:52.384Z,29.15
2017-04-04T07:09:02.380Z,29.15
2017-04-04T07:10:12.708Z,29.35
2017-04-04T07:11:22.653Z,29.15
2017-04-04T07:12:32.311Z,29.25
2017-04-04T07:13:42.603Z,29.25
2017-04-04T07:14:52.899Z,29.35
2017-04-04T07:16:02.898Z,29.25
2017-04-04T07:17:13.450Z,29.25
2017-04-04T07:18:23.428Z,29.06
2017-04-04T07:19:33.408Z,29.25
2017-04-04T07:20:43.681Z,29.44
2017-04-04T07:21:53.986Z,29.44
2017-04-04T07:23:04.592Z,29.44
2017-04-04T07:24:14.567Z,29.44
2017-04-04T07:25:24.847Z,29.35
2017-04-04T07:26:34.820Z,29.63
2017-04-04T07:27:44.998Z,29.44
2017-04-04T07:28:55.572Z,29.25
2017-04-04T07:30:05.851Z,29.25
2017-04-04T07:31:16.134Z,29.15
2017-04-04T07:32:26.424Z,29.35
2017-04-04T07:33:36.740Z,29.27
2017-04-04T07:34:47.297Z,29.55
2017-04-04T07:35:57.583Z,29.35
2017-04-04T07:37:07.554Z,29.36
2017-04-04T07:38:16.902Z,29.15
2017-04-04T07:39:26.874Z,29.15
2017-04-04T07:40:37.145Z,29.07
2017-04-04T07:41:47.421Z,29.07
2017-04-04T07:42:57.443Z,29.07
2017-04-04T07:44:07.922Z,29.07
2017-04-04T07:45:18.006Z,29.17
2017-04-04T07:46:28.632Z,29.07
2017-04-04T07:47:38.911Z,29.07
2017-04-04T07:48:49.268Z,29.07
2017-04-04T07:49:59.560Z,29.07
2017-04-04T07:51:09.884Z,28.97
2017-04-04T07:52:20.138Z,29.17
2017-04-04T07:53:30.462Z,29.07
2017-04-04T07:54:40.449Z,28.96
2017-04-04T07:55:49.818Z,28.97
2017-04-04T07:57:00.044Z,28.78
2017-04-04T07:58:10.690Z,28.78
2017-04-04T07:59:20.962Z,28.97
2017-04-04T08:00:30.944Z,29.36
2017-04-04T08:01:41.230Z,29.27
2017-04-04T08:02:51.532Z,29.36
2017-04-04T08:04:02.116Z,29.46
2017-04-04T08:05:12.382Z,29.35
2017-04-04T08:06:22.663Z,29.36
2017-04-04T08:07:32.968Z,29.44
2017-04-04T08:08:42.675Z,29.25
2017-04-04T08:09:53.218Z,29.25
2017-04-04T08:11:03.505Z,29.25
2017-04-04T08:12:13.795Z,29.15
2017-04-04T08:13:23.787Z,29.25
2017-04-04T08:14:34.089Z,29.17
2017-04-04T08:15:44.635Z,29.36
2017-04-04T08:16:54.949Z,29.27
2017-04-04T08:18:04.942Z,29.27
2017-04-04T08:19:15.237Z,29.27
2017-04-04T08:20:25.600Z,29.17
2017-04-04T08:21:36.153Z,29.55
2017-04-04T08:22:46.481Z,29.36
2017-04-04T08:23:56.773Z,29.65
2017-04-04T08:25:07.075Z,29.07
2017-04-04T08:26:16.988Z,29.27
2017-04-04T08:27:27.282Z,29.55
2017-04-04T08:28:36.993Z,29.07
2017-04-04T08:29:47.268Z,29.07
2017-04-04T08:30:57.598Z,28.97
2017-04-04T08:32:07.884Z,29.07
2017-04-04T08:33:18.499Z,29.07
2017-04-04T08:34:28.805Z,28.88
2017-04-04T08:35:39.088Z,28.78
2017-04-04T08:36:49.065Z,28.97
2017-04-04T08:37:59.055Z,28.69
2017-04-04T08:39:08.987Z,28.4
2017-04-04T08:40:18.967Z,28.59
2017-04-04T08:41:28.637Z,28.49
2017-04-04T08:42:38.920Z,28.49
2017-04-04T08:43:48.964Z,28.3
2017-04-04T08:44:59.575Z,28.02
2017-04-04T08:46:09.597Z,27.92
2017-04-04T08:47:19.887Z,28.49
2017-04-04T08:48:30.176Z,28.59
2017-04-04T08:49:40.474Z,28.59
2017-04-04T08:50:50.404Z,28.59
2017-04-04T08:52:00.726Z,28.59
2017-04-04T08:53:10.707Z,28.69
2017-04-04T08:54:20.706Z,28.88
2017-04-04T08:55:31.066Z,28.69
2017-04-04T08:56:41.351Z,28.88
2017-04-04T08:57:51.644Z,28.59
2017-04-04T08:59:01.962Z,28.4
2017-04-04T09:00:11.949Z,28.49
2017-04-04T09:01:22.347Z,28.02
2017-04-04T09:02:32.863Z,28.11
2017-04-04T09:03:43.158Z,28.2
2017-04-04T09:04:53.149Z,28.11
2017-04-04T09:06:03.492Z,28.2
2017-04-04T09:07:13.788Z,28.3
2017-04-04T09:08:24.372Z,28.2
2017-04-04T09:09:34.681Z,28.3
2017-04-04T09:10:44.338Z,28.4
2017-04-04T09:11:54.614Z,28.11
2017-04-04T09:13:04.581Z,28.2
2017-04-04T09:14:15.103Z,28.11
2017-04-04T09:15:25.385Z,28.59
2017-04-04T09:16:35.673Z,28.7
2017-04-04T09:17:45.993Z,28.69
2017-04-04T09:18:55.676Z,28.49
2017-04-04T09:20:05.894Z,28.49
2017-04-04T09:21:15.868Z,28.41
2017-04-04T09:22:26.163Z,28.03
2017-04-04T09:23:36.478Z,28.13
2017-04-04T09:24:46.145Z,28.3
2017-04-04T09:25:56.720Z,28.22
2017-04-04T09:27:07.022Z,28.22
2017-04-04T09:28:17.004Z,28.03
2017-04-04T09:29:26.965Z,27.93
2017-04-04T09:30:37.253Z,28.51
2017-04-04T09:31:47.844Z,28.8
2017-04-04T09:32:57.822Z,29.08
2017-04-04T09:34:08.106Z,29.07
2017-04-04T09:35:18.379Z,28.89
2017-04-04T09:36:28.511Z,28.99
2017-04-04T09:37:38.726Z,28.8
2017-04-04T09:38:48.734Z,28.8
2017-04-04T09:39:58.701Z,29.08
2017-04-04T09:41:09.014Z,29.47
2017-04-04T09:42:19.307Z,29.18
2017-04-04T09:43:29.856Z,29.38
2017-04-04T09:44:40.168Z,29.57
2017-04-04T09:45:50.477Z,29.28
2017-04-04T09:47:00.526Z,29.08
2017-04-04T09:48:10.551Z,29.18
2017-04-04T09:49:20.802Z,29.08
2017-04-04T09:50:30.788Z,29.57
2017-04-04T09:51:41.101Z,29.38
2017-04-04T09:52:51.408Z,29.38
2017-04-04T09:54:01.697Z,29.28
2017-04-04T09:55:12.253Z,29.18
2017-04-04T09:56:22.249Z,29.28
2017-04-04T09:57:32.263Z,29.28
2017-04-04T09:58:42.237Z,29.18
2017-04-04T09:59:52.528Z,29.28
2017-04-04T10:01:02.754Z,29.28
2017-04-04T10:02:12.740Z,29.38
2017-04-04T10:03:23.043Z,29.18
2017-04-04T10:04:33.047Z,29.28
2017-04-04T10:05:42.707Z,29.18
2017-04-04T10:06:53.031Z,29.47
2017-04-04T10:08:03.014Z,29.38
2017-04-04T10:09:13.401Z,29.28
2017-04-04T10:10:23.392Z,29.38
2017-04-04T10:11:33.682Z,29.18
2017-04-04T10:12:43.907Z,29.28
2017-04-04T10:13:54.236Z,29.57
2017-04-04T10:15:04.581Z,29.47
2017-04-04T10:16:14.916Z,29.18
2017-04-04T10:17:24.906Z,29.08
2017-04-04T10:18:35.444Z,28.99
2017-04-04T10:19:45.750Z,28.8
2017-04-04T10:20:56.037Z,28.89
2017-04-04T10:22:06.326Z,28.7
2017-04-04T10:23:16.614Z,28.8
2017-04-04T10:24:27.156Z,28.99
2017-04-04T10:25:37.442Z,29.08
2017-04-04T10:26:47.422Z,28.99
2017-04-04T10:27:57.692Z,29.08
2017-04-04T10:29:07.674Z,28.99
2017-04-04T10:30:18.265Z,29.08
2017-04-04T10:31:27.933Z,29.08
2017-04-04T10:32:38.154Z,29.08
2017-04-04T10:33:48.449Z,29.08
2017-04-04T10:34:58.468Z,29.08
2017-04-04T10:36:08.696Z,29.08
2017-04-04T10:37:19.017Z,28.89
2017-04-04T10:38:29.307Z,28.89
2017-04-04T10:39:39.310Z,29.08
2017-04-04T10:40:49.295Z,29.08
2017-04-04T10:41:59.259Z,29.08
2017-04-04T10:43:09.592Z,28.89
2017-04-04T10:44:19.899Z,29.08
2017-04-04T10:45:29.893Z,29.08
2017-04-04T10:46:40.189Z,28.99
2017-04-04T10:47:50.778Z,28.99
2017-04-04T10:49:01.098Z,29.08
2017-04-04T10:50:11.101Z,29.08
2017-04-04T10:51:21.375Z,28.99
2017-04-04T10:52:31.718Z,29.08
2017-04-04T10:53:41.960Z,29.08
2017-04-04T10:54:51.939Z,29.08
2017-04-04T10:56:02.233Z,29.08
2017-04-04T10:57:12.529Z,29.08
2017-04-04T10:58:22.508Z,28.99
2017-04-04T10:59:33.107Z,29.57
2017-04-04T11:00:43.082Z,29.28
2017-04-04T11:01:53.368Z,29.28
2017-04-04T11:03:03.656Z,29.18
2017-04-04T11:04:13.954Z,29.28
2017-04-04T11:05:24.188Z,29.47
2017-04-04T11:06:34.460Z,29.38
2017-04-04T11:07:44.746Z,29.47
2017-04-04T11:08:55.038Z,29.47
2017-04-04T11:10:05.314Z,29.28
2017-04-04T11:11:15.901Z,29.08
2017-04-04T11:12:26.191Z,29.18
2017-04-04T11:13:36.488Z,29.18
2017-04-04T11:14:46.773Z,29.28
2017-04-04T11:15:57.090Z,29.28
2017-04-04T11:17:07.008Z,29.47
2017-04-04T11:18:16.972Z,29.38
2017-04-04T11:19:27.250Z,29.57
2017-04-04T11:20:37.529Z,29.38
2017-04-04T11:21:47.509Z,28.99
2017-04-04T11:22:58.052Z,29.1
2017-04-04T11:24:08.035Z,29.08
2017-04-04T11:25:18.008Z,29.08
2017-04-04T11:26:28.302Z,29.2
2017-04-04T11:27:38.278Z,29.08
2017-04-04T11:28:48.495Z,29.1
2017-04-04T11:29:58.779Z,29.1
2017-04-04T11:31:09.083Z,29.57
2017-04-04T11:32:19.370Z,29.08
2017-04-04T11:33:29.709Z,29.08
2017-04-04T11:34:39.977Z,29.08
2017-04-04T11:35:50.257Z,29.08
2017-04-04T11:37:00.237Z,29.1
2017-04-04T11:38:10.762Z,29.08
2017-04-04T11:39:21.072Z,29.1
2017-04-04T11:40:31.306Z,28.99
2017-04-04T11:41:41.600Z,29.28
2017-04-04T11:42:51.865Z,29.66
2017-04-04T11:44:02.151Z,29.38
2017-04-04T11:45:12.434Z,29.38
2017-04-04T11:46:22.985Z,29.39
2017-04-04T11:47:32.961Z,29.28
2017-04-04T11:48:43.240Z,29.28
2017-04-04T11:49:53.527Z,29.28
2017-04-04T11:51:03.839Z,29.18
2017-04-04T11:52:14.367Z,29.28
2017-04-04T11:53:24.333Z,29.28
2017-04-04T11:54:34.630Z,29.28
2017-04-04T11:55:44.922Z,29.28
2017-04-04T11:56:54.903Z,29.28
2017-04-04T11:58:05.434Z,29.28
2017-04-04T11:59:15.722Z,29.28
2017-04-04T12:00:25.710Z,29.38
2017-04-04T12:01:36.010Z,29.38
2017-04-04T12:02:45.987Z,29.47
2017-04-04T12:03:56.292Z,29.57
2017-04-04T12:05:06.565Z,29.18
2017-04-04T12:06:16.218Z,29.18
2017-04-04T12:07:26.519Z,29.18
2017-04-04T12:08:36.821Z,29.57
2017-04-04T12:09:47.037Z,29.57
2017-04-04T12:10:57.344Z,29.47
2017-04-04T12:12:07.628Z,29.57
2017-04-04T12:13:17.934Z,29.47
2017-04-04T12:14:28.217Z,29.38
2017-04-04T12:15:38.811Z,29.38
2017-04-04T12:16:48.467Z,29.18
2017-04-04T12:17:58.750Z,29.18
2017-04-04T12:19:08.734Z,29.18
2017-04-04T12:20:19.016Z,29.38
2017-04-04T12:21:29.551Z,29.47
2017-04-04T12:22:39.878Z,29.38
2017-04-04T12:23:49.834Z,29.47
2017-04-04T12:24:59.490Z,29.47
2017-04-04T12:26:09.771Z,29.47
2017-04-04T12:27:20.327Z,29.38
2017-04-04T12:28:30.612Z,29.38
2017-04-04T12:29:40.590Z,29.28
2017-04-04T12:30:50.869Z,29.38
2017-04-04T12:32:00.857Z,29.38
2017-04-04T12:33:11.144Z,29.66
2017-04-04T12:34:21.435Z,29.66
2017-04-04T12:35:32.088Z,29.76
2017-04-04T12:36:42.428Z,29.47
2017-04-04T12:37:52.416Z,29.57
2017-04-04T12:39:02.961Z,29.76
2017-04-04T12:40:13.247Z,29.57
2017-04-04T12:41:23.223Z,29.57
2017-04-04T12:42:33.524Z,29.28
2017-04-04T12:43:43.501Z,29.66
2017-04-04T12:44:54.087Z,29.38
2017-04-04T12:46:04.363Z,29.47
2017-04-04T12:47:14.651Z,29.28
2017-04-04T12:48:24.640Z,29.18
2017-04-04T12:49:34.947Z,29.38
2017-04-04T12:50:45.491Z,29.28
2017-04-04T12:51:55.765Z,29.28
2017-04-04T12:53:05.776Z,29.57
2017-04-04T12:54:16.111Z,29.47
2017-04-04T12:55:26.105Z,29.57
2017-04-04T12:56:36.341Z,29.18
2017-04-04T12:57:46.316Z,29.08
2017-04-04T12:58:56.635Z,28.99
2017-04-04T13:00:06.931Z,29.08
2017-04-04T13:01:17.222Z,29.08
2017-04-04T13:02:27.774Z,29.08
2017-04-04T13:03:38.081Z,28.99
2017-04-04T13:04:48.605Z,29.08
2017-04-04T13:05:59.329Z,28.99
2017-04-04T13:07:09.620Z,29.08
2017-04-04T13:08:20.223Z,29.08
2017-04-04T13:09:30.500Z,29.18
2017-04-04T13:10:40.785Z,29.08
2017-04-04T13:11:50.741Z,29.08
2017-04-04T13:13:01.023Z,29.08
2017-04-04T13:14:11.594Z,29.08
2017-04-04T13:15:21.893Z,28.89
2017-04-04T13:16:31.870Z,29.08
2017-04-04T13:17:42.163Z,29.08
2017-04-04T13:18:52.447Z,29.18
2017-04-04T13:20:02.387Z,29.08
2017-04-04T13:21:12.678Z,29.08
2017-04-04T13:22:22.655Z,28.99
2017-04-04T13:23:32.929Z,28.89
2017-04-04T13:24:43.211Z,28.99
2017-04-04T13:25:53.750Z,28.8
2017-04-04T13:27:04.056Z,28.89
2017-04-04T13:28:14.043Z,28.8
2017-04-04T13:29:24.332Z,28.99
2017-04-04T13:30:34.636Z,29.08
2017-04-04T13:31:45.193Z,28.99
2017-04-04T13:32:55.179Z,28.89
2017-04-04T13:34:05.478Z,28.99
2017-04-04T13:35:15.766Z,28.89
2017-04-04T13:36:25.751Z,28.7
2017-04-04T13:37:36.338Z,28.7
2017-04-04T13:38:46.629Z,28.8
2017-04-04T13:39:56.917Z,28.8
2017-04-04T13:41:07.213Z,28.89
2017-04-04T13:42:17.500Z,28.89
2017-04-04T13:43:27.773Z,28.89
2017-04-04T13:44:38.075Z,28.61
2017-04-04T13:45:48.352Z,28.7
2017-04-04T13:46:58.673Z,28.61
2017-04-04T13:48:08.949Z,28.8
2017-04-04T13:49:19.224Z,28.7
2017-04-04T13:50:29.513Z,29.08
2017-04-04T13:51:39.794Z,29.18
2017-04-04T13:52:50.075Z,29.28
2017-04-04T13:54:00.346Z,29.57
2017-04-04T13:55:10.933Z,29.47
2017-04-04T13:56:21.205Z,29.28
2017-04-04T13:57:31.490Z,29.28
2017-04-04T13:58:41.472Z,29.28
2017-04-04T13:59:51.493Z,29.28
2017-04-04T14:01:02.075Z,29.38
2017-04-04T14:02:12.036Z,29.57
2017-04-04T14:03:22.329Z,29.38
2017-04-04T14:04:32.309Z,28.99
2017-04-04T14:05:42.276Z,29.57
2017-04-04T14:06:52.877Z,29.47
2017-04-04T14:08:02.542Z,29.28
2017-04-04T14:09:12.821Z,29.28
2017-04-04T14:10:23.108Z,29.57
2017-04-04T14:11:33.395Z,29.38
2017-04-04T14:12:43.658Z,29.28
2017-04-04T14:13:53.943Z,29.38
2017-04-04T14:15:03.910Z,29.28
2017-04-04T14:16:13.884Z,29.38
2017-04-04T14:17:24.168Z,29.28
2017-04-04T14:18:34.762Z,29.18
2017-04-04T14:19:45.078Z,29.38
2017-04-04T14:20:55.371Z,29.38
2017-04-04T14:22:05.335Z,29.57
2017-04-04T14:23:15.618Z,29.76
2017-04-04T14:24:26.209Z,29.76
2017-04-04T14:25:36.500Z,29.38
2017-04-04T14:26:46.791Z,29.18
2017-04-04T14:27:57.070Z,29.18
2017-04-04T14:29:07.353Z,29.18
2017-04-04T14:30:17.627Z,29.18
2017-04-04T14:31:27.939Z,29.18
2017-04-04T14:32:38.209Z,29.38
2017-04-04T14:33:48.493Z,29.38
2017-04-04T14:34:58.792Z,29.28
2017-04-04T14:36:09.412Z,29.18
2017-04-04T14:37:19.690Z,29.28
2017-04-04T14:38:29.976Z,29.18
2017-04-04T14:39:39.943Z,29.28
2017-04-04T14:40:50.240Z,29.28
2017-04-04T14:42:00.852Z,29.28
2017-04-04T14:43:11.198Z,29.28
2017-04-04T14:44:21.179Z,29.28
2017-04-04T14:45:31.471Z,29.38
2017-04-04T14:46:41.468Z,29.38
2017-04-04T14:47:51.737Z,29.36
2017-04-04T14:49:02.022Z,29.27
2017-04-04T14:50:12.002Z,29.28
2017-04-04T14:51:21.976Z,29.27
2017-04-04T14:52:32.261Z,29.27
2017-04-04T14:53:42.537Z,29.28
2017-04-04T14:54:52.831Z,29.28
2017-04-04T14:56:03.115Z,29.17
2017-04-04T14:57:13.084Z,29.28
2017-04-04T14:58:23.354Z,29.36
2017-04-04T14:59:33.648Z,29.28
2017-04-04T15:00:43.614Z,29.07
2017-04-04T15:01:53.584Z,29.46
2017-04-04T15:03:03.569Z,29.65
2017-04-04T15:04:13.869Z,29.65
2017-04-04T15:05:24.117Z,29.74
2017-04-04T15:06:34.099Z,29.46
2017-04-04T15:07:44.078Z,29.65
2017-04-04T15:08:54.046Z,29.76
2017-04-04T15:10:04.040Z,29.46
2017-04-04T15:11:14.630Z,29.65
2017-04-04T15:12:24.608Z,29.65
2017-04-04T15:13:34.578Z,29.74
2017-04-04T15:14:44.549Z,29.95